South Dos Palos, CA

5:14 PM PDT on July 29, 2015 (GMT -0700)
APRSWXNET | | Change Station
CLOSE
Current Station
Personal Weather Station
Location: Los Banos, CA
Elevation: 103 ft
Nearby Weather Stations

Elev 103 ft 37.06 °N, 120.81 °W | Updated 25 minutes ago

Clear
Clear
103 °F
Feels Like 99 °F
N
7
Wind Variable Wind from NNE
Gusts 8.0 mph

Today
High -- | Low -- °F
--% Chance of Precip.
Yesterday
High -- | Low -- °F
Precip. -- in
6:05 AM 8:12 PM
Waxing Gibbous, 97% visible
Pressure 29.79 in
Visibility 10.0 miles
Clouds Clear
Heat Index 99 °F
Dew Point 43 °F
Humidity 13%
Rainfall in
Snow Depth Not available.
UV 5 out of 12
Pollen 5.50 out of 12
Air Quality Not available.
Flu Activity Not available.
METAR KMCE 292353Z AUTO 36007KT 10SM CLR 39/09 A2980 RMK AO2 SLP088 T03940089 10400 20322 56018

More Conditions Fewer Conditions

Pressure 29.79 in
Visibility 10.0 miles
Clouds Clear
Heat Index 99 °F
Dew Point 43 °F
Humidity 13%
Rainfall in
Snow Depth Not available.
UV 5 out of 12
Pollen 5.50 out of 12
Air Quality Not available.
Flu Activity Not available.
METAR KMCE 292353Z AUTO 36007KT 10SM CLR 39/09 A2980 RMK AO2 SLP088 T03940089 10400 20322 56018

More Conditions Fewer Conditions

10-Day Weather Forecast

×

Almanac

Astronomy

Jul. 29, 2015 Rise Set
Actual Time
Civil Twilight
Nautical Twilight
Astronomical Twilight
Moon
Length of Visible Light
Length of Day
Tomorrow will be .
, % of the Moon is Illuminated

Today's Extremes

State Highs State Lows

Community

WunderPhotos

Upload Photos

1,842,204 photos uploaded!

WunderBlogs® & News

Nearby

Air Quality

  Air Quality AQ Index Pollutant
Not available.

Snow Depth

Station Depth Elevation

Earthquake Activity

City Distance Mag. Time & Date
Minimum magnitude displayed is 2.5.

Coastal Water Temperatures

Place Temperature

Stations

Nearby Weather Stations

Station Location Temp. Windchill Dew Point Humidity Wind Precip. Elev Updated Type